North Ocean City, Maryland
Current Conditions -  °F | °C
As of 10:53 AM on Friday 24 Oct 2014 (Local Time) from KOXB Reporting Station
Clear Clear  
Wind Chill: 62°   Ceiling: Unl
Heat Index: 62°   Visibility: 10mi
Dew Point: 47°   Wind: 14mph
Humidity: 58%   Direction: 320°NW
Pressure: 29.9"   Gusts: 25mph
Location:  38.3984°N, 75.0667°W
Report Text: KOXB 241453Z AUTO 32012G22KT 290V350 10SM CLR 17/08 A2990 RMK AO2 SLP124 T01670083 50002 TSNO
Loading
Personal Weather Stations






























Interactive Weather Map
Tropical Storm Tracking
New forecast layout! Learn more

10-Day Weather Forecast

Advertisements
Track Severe Weather on mobile